sensor_id;sensor_type;location;lat;lon;timestamp;P1;durP1;ratioP1;P2;durP2;ratioP2
1831;SDS011;1680;48.106;11.708;2023-05-28T00:02:05;7.23;;;6.10;;
1831;SDS011;1680;48.106;11.708;2023-05-28T00:04:32;9.83;;;7.27;;
1831;SDS011;1680;48.106;11.708;2023-05-28T00:07:01;8.30;;;6.37;;
1831;SDS011;1680;48.106;11.708;2023-05-28T00:09:29;7.47;;;6.67;;
1831;SDS011;1680;48.106;11.708;2023-05-28T00:11:56;10.30;;;6.47;;
1831;SDS011;1680;48.106;11.708;2023-05-28T00:14:23;7.27;;;6.13;;
1831;SDS011;1680;48.106;11.708;2023-05-28T00:16:50;7.03;;;6.37;;
1831;SDS011;1680;48.106;11.708;2023-05-28T00:19:18;8.87;;;6.50;;
1831;SDS011;1680;48.106;11.708;2023-05-28T00:21:47;8.90;;;5.87;;
1831;SDS011;1680;48.106;11.708;2023-05-28T00:24:15;6.50;;;5.90;;
1831;SDS011;1680;48.106;11.708;2023-05-28T00:26:43;6.60;;;6.00;;
1831;SDS011;1680;48.106;11.708;2023-05-28T00:29:10;9.47;;;8.40;;
1831;SDS011;1680;48.106;11.708;2023-05-28T00:31:38;10.70;;;7.37;;
1831;SDS011;1680;48.106;11.708;2023-05-28T00:34:05;9.23;;;8.20;;
1831;SDS011;1680;48.106;11.708;2023-05-28T00:36:32;8.17;;;7.30;;
1831;SDS011;1680;48.106;11.708;2023-05-28T00:39:00;8.60;;;7.70;;
1831;SDS011;1680;48.106;11.708;2023-05-28T00:41:31;10.03;;;8.43;;
1831;SDS011;1680;48.106;11.708;2023-05-28T00:44:00;10.17;;;7.80;;
1831;SDS011;1680;48.106;11.708;2023-05-28T00:46:28;8.27;;;7.47;;
1831;SDS011;1680;48.106;11.708;2023-05-28T00:48:56;7.67;;;6.93;;
1831;SDS011;1680;48.106;11.708;2023-05-28T00:51:24;9.03;;;6.43;;
1831;SDS011;1680;48.106;11.708;2023-05-28T00:53:52;6.27;;;5.67;;
1831;SDS011;1680;48.106;11.708;2023-05-28T00:56:20;7.43;;;5.87;;
1831;SDS011;1680;48.106;11.708;2023-05-28T00:58:51;6.60;;;5.87;;
1831;SDS011;1680;48.106;11.708;2023-05-28T01:01:20;6.10;;;5.50;;
1831;SDS011;1680;48.106;11.708;2023-05-28T01:03:49;6.30;;;5.70;;
1831;SDS011;1680;48.106;11.708;2023-05-28T01:06:16;10.40;;;6.10;;
1831;SDS011;1680;48.106;11.708;2023-05-28T01:08:46;9.20;;;6.07;;
1831;SDS011;1680;48.106;11.708;2023-05-28T01:11:15;9.10;;;6.30;;
1831;SDS011;1680;48.106;11.708;2023-05-28T01:13:44;6.43;;;5.83;;
1831;SDS011;1680;48.106;11.708;2023-05-28T01:16:13;7.57;;;6.37;;
1831;SDS011;1680;48.106;11.708;2023-05-28T01:18:40;7.20;;;6.57;;
1831;SDS011;1680;48.106;11.708;2023-05-28T01:21:09;6.63;;;5.93;;
1831;SDS011;1680;48.106;11.708;2023-05-28T01:23:38;7.50;;;5.90;;
1831;SDS011;1680;48.106;11.708;2023-05-28T01:26:09;5.83;;;5.20;;
1831;SDS011;1680;48.106;11.708;2023-05-28T01:28:37;6.40;;;5.27;;
1831;SDS011;1680;48.106;11.708;2023-05-28T01:31:09;6.93;;;6.23;;
1831;SDS011;1680;48.106;11.708;2023-05-28T01:33:36;8.23;;;5.63;;
1831;SDS011;1680;48.106;11.708;2023-05-28T01:36:08;7.27;;;5.97;;
1831;SDS011;1680;48.106;11.708;2023-05-28T01:38:39;6.10;;;5.33;;
1831;SDS011;1680;48.106;11.708;2023-05-28T01:41:08;7.30;;;5.47;;
1831;SDS011;1680;48.106;11.708;2023-05-28T01:43:37;8.13;;;6.30;;
1831;SDS011;1680;48.106;11.708;2023-05-28T01:46:06;5.90;;;5.17;;
1831;SDS011;1680;48.106;11.708;2023-05-28T01:48:33;6.07;;;5.47;;
1831;SDS011;1680;48.106;11.708;2023-05-28T01:51:01;6.70;;;5.20;;
1831;SDS011;1680;48.106;11.708;2023-05-28T01:53:28;8.13;;;5.97;;
1831;SDS011;1680;48.106;11.708;2023-05-28T01:55:57;6.13;;;5.43;;
1831;SDS011;1680;48.106;11.708;2023-05-28T01:58:26;7.47;;;5.80;;
1831;SDS011;1680;48.106;11.708;2023-05-28T02:00:55;5.27;;;4.77;;
1831;SDS011;1680;48.106;11.708;2023-05-28T02:03:30;5.97;;;5.30;;
1831;SDS011;1680;48.106;11.708;2023-05-28T02:05:57;7.67;;;5.20;;
1831;SDS011;1680;48.106;11.708;2023-05-28T02:08:24;7.13;;;5.47;;
1831;SDS011;1680;48.106;11.708;2023-05-28T02:10:52;5.93;;;5.37;;
1831;SDS011;1680;48.106;11.708;2023-05-28T02:13:20;6.37;;;5.77;;
1831;SDS011;1680;48.106;11.708;2023-05-28T02:15:47;5.83;;;5.23;;
1831;SDS011;1680;48.106;11.708;2023-05-28T02:18:15;7.77;;;5.50;;
1831;SDS011;1680;48.106;11.708;2023-05-28T02:20:42;6.10;;;5.50;;
1831;SDS011;1680;48.106;11.708;2023-05-28T02:23:09;7.70;;;5.00;;
1831;SDS011;1680;48.106;11.708;2023-05-28T02:25:37;7.67;;;5.20;;
1831;SDS011;1680;48.106;11.708;2023-05-28T02:28:04;6.17;;;5.57;;
1831;SDS011;1680;48.106;11.708;2023-05-28T02:30:32;6.77;;;5.60;;
1831;SDS011;1680;48.106;11.708;2023-05-28T02:33:00;7.17;;;5.60;;
1831;SDS011;1680;48.106;11.708;2023-05-28T02:35:28;5.77;;;4.87;;
1831;SDS011;1680;48.106;11.708;2023-05-28T02:37:55;6.00;;;5.50;;
1831;SDS011;1680;48.106;11.708;2023-05-28T02:40:22;6.23;;;5.60;;
1831;SDS011;1680;48.106;11.708;2023-05-28T02:42:50;7.67;;;5.80;;
1831;SDS011;1680;48.106;11.708;2023-05-28T02:45:17;5.63;;;5.13;;
1831;SDS011;1680;48.106;11.708;2023-05-28T02:47:46;7.27;;;5.10;;
1831;SDS011;1680;48.106;11.708;2023-05-28T02:50:13;6.90;;;5.60;;
1831;SDS011;1680;48.106;11.708;2023-05-28T02:52:40;5.70;;;5.10;;
1831;SDS011;1680;48.106;11.708;2023-05-28T02:55:07;5.80;;;5.20;;
1831;SDS011;1680;48.106;11.708;2023-05-28T02:57:35;6.03;;;5.43;;
1831;SDS011;1680;48.106;11.708;2023-05-28T03:00:02;6.43;;;5.23;;
1831;SDS011;1680;48.106;11.708;2023-05-28T03:02:30;6.77;;;4.93;;
1831;SDS011;1680;48.106;11.708;2023-05-28T03:04:58;7.77;;;5.20;;
1831;SDS011;1680;48.106;11.708;2023-05-28T03:07:27;6.07;;;5.47;;
1831;SDS011;1680;48.106;11.708;2023-05-28T03:09:54;8.10;;;5.80;;
1831;SDS011;1680;48.106;11.708;2023-05-28T03:12:23;6.53;;;5.53;;
1831;SDS011;1680;48.106;11.708;2023-05-28T03:14:50;5.90;;;5.00;;
1831;SDS011;1680;48.106;11.708;2023-05-28T03:17:17;6.43;;;5.80;;
1831;SDS011;1680;48.106;11.708;2023-05-28T03:19:44;6.50;;;5.37;;
1831;SDS011;1680;48.106;11.708;2023-05-28T03:22:13;6.90;;;5.70;;
1831;SDS011;1680;48.106;11.708;2023-05-28T03:24:41;5.87;;;5.23;;
1831;SDS011;1680;48.106;11.708;2023-05-28T03:27:08;6.17;;;5.30;;
1831;SDS011;1680;48.106;11.708;2023-05-28T03:29:35;5.30;;;4.87;;
1831;SDS011;1680;48.106;11.708;2023-05-28T03:32:03;5.17;;;4.67;;
1831;SDS011;1680;48.106;11.708;2023-05-28T03:34:30;7.30;;;5.03;;
1831;SDS011;1680;48.106;11.708;2023-05-28T03:36:58;6.83;;;5.70;;
1831;SDS011;1680;48.106;11.708;2023-05-28T03:39:27;7.30;;;5.57;;
1831;SDS011;1680;48.106;11.708;2023-05-28T03:41:54;6.30;;;4.60;;
1831;SDS011;1680;48.106;11.708;2023-05-28T03:44:21;6.73;;;5.40;;
1831;SDS011;1680;48.106;11.708;2023-05-28T03:46:48;6.00;;;5.47;;
1831;SDS011;1680;48.106;11.708;2023-05-28T03:49:15;7.33;;;5.20;;
1831;SDS011;1680;48.106;11.708;2023-05-28T03:51:43;5.60;;;4.77;;
1831;SDS011;1680;48.106;11.708;2023-05-28T03:54:10;5.47;;;4.97;;
1831;SDS011;1680;48.106;11.708;2023-05-28T03:56:38;5.60;;;4.67;;
1831;SDS011;1680;48.106;11.708;2023-05-28T03:59:06;5.73;;;4.70;;
1831;SDS011;1680;48.106;11.708;2023-05-28T04:01:33;5.33;;;4.80;;
1831;SDS011;1680;48.106;11.708;2023-05-28T04:04:01;7.60;;;5.63;;
1831;SDS011;1680;48.106;11.708;2023-05-28T04:06:28;5.53;;;4.80;;
1831;SDS011;1680;48.106;11.708;2023-05-28T04:08:56;5.70;;;5.20;;
1831;SDS011;1680;48.106;11.708;2023-05-28T04:11:24;6.47;;;5.30;;
1831;SDS011;1680;48.106;11.708;2023-05-28T04:13:55;5.80;;;5.20;;
1831;SDS011;1680;48.106;11.708;2023-05-28T04:16:22;6.23;;;5.40;;
1831;SDS011;1680;48.106;11.708;2023-05-28T04:18:50;5.73;;;5.17;;
1831;SDS011;1680;48.106;11.708;2023-05-28T04:21:17;6.50;;;5.30;;
1831;SDS011;1680;48.106;11.708;2023-05-28T04:23:45;6.30;;;5.50;;
1831;SDS011;1680;48.106;11.708;2023-05-28T04:26:12;6.23;;;5.30;;
1831;SDS011;1680;48.106;11.708;2023-05-28T04:28:39;5.50;;;4.90;;
1831;SDS011;1680;48.106;11.708;2023-05-28T04:31:08;6.07;;;5.13;;
1831;SDS011;1680;48.106;11.708;2023-05-28T04:33:35;6.17;;;4.60;;
1831;SDS011;1680;48.106;11.708;2023-05-28T04:36:03;6.33;;;5.10;;
1831;SDS011;1680;48.106;11.708;2023-05-28T04:38:33;5.73;;;4.80;;
1831;SDS011;1680;48.106;11.708;2023-05-28T04:41:01;6.83;;;5.30;;
1831;SDS011;1680;48.106;11.708;2023-05-28T04:43:30;5.87;;;5.00;;
1831;SDS011;1680;48.106;11.708;2023-05-28T04:45:58;6.20;;;5.60;;
1831;SDS011;1680;48.106;11.708;2023-05-28T04:48:27;8.60;;;5.73;;
1831;SDS011;1680;48.106;11.708;2023-05-28T04:50:56;7.13;;;4.90;;
1831;SDS011;1680;48.106;11.708;2023-05-28T04:53:24;9.97;;;5.23;;
1831;SDS011;1680;48.106;11.708;2023-05-28T04:55:51;5.77;;;5.20;;
1831;SDS011;1680;48.106;11.708;2023-05-28T04:58:18;7.83;;;5.00;;
1831;SDS011;1680;48.106;11.708;2023-05-28T05:00:46;9.10;;;6.00;;
1831;SDS011;1680;48.106;11.708;2023-05-28T05:03:13;7.30;;;5.10;;
1831;SDS011;1680;48.106;11.708;2023-05-28T05:05:42;6.37;;;5.77;;
1831;SDS011;1680;48.106;11.708;2023-05-28T05:08:09;7.20;;;5.57;;
1831;SDS011;1680;48.106;11.708;2023-05-28T05:10:38;6.83;;;5.47;;
1831;SDS011;1680;48.106;11.708;2023-05-28T05:13:05;5.90;;;5.30;;
1831;SDS011;1680;48.106;11.708;2023-05-28T05:15:33;7.47;;;5.00;;
1831;SDS011;1680;48.106;11.708;2023-05-28T05:18:00;6.53;;;5.93;;
1831;SDS011;1680;48.106;11.708;2023-05-28T05:20:27;7.00;;;5.40;;
1831;SDS011;1680;48.106;11.708;2023-05-28T05:22:56;5.97;;;5.37;;
1831;SDS011;1680;48.106;11.708;2023-05-28T05:25:23;8.00;;;5.33;;
1831;SDS011;1680;48.106;11.708;2023-05-28T05:27:50;8.27;;;5.53;;
1831;SDS011;1680;48.106;11.708;2023-05-28T05:30:18;7.67;;;5.13;;
1831;SDS011;1680;48.106;11.708;2023-05-28T05:32:45;9.13;;;5.60;;
1831;SDS011;1680;48.106;11.708;2023-05-28T05:35:13;7.63;;;5.70;;
1831;SDS011;1680;48.106;11.708;2023-05-28T05:37:41;7.50;;;5.30;;
1831;SDS011;1680;48.106;11.708;2023-05-28T05:40:10;8.80;;;5.50;;
1831;SDS011;1680;48.106;11.708;2023-05-28T05:42:38;9.53;;;5.40;;
1831;SDS011;1680;48.106;11.708;2023-05-28T05:45:05;7.07;;;5.33;;
1831;SDS011;1680;48.106;11.708;2023-05-28T05:47:35;7.57;;;5.63;;
1831;SDS011;1680;48.106;11.708;2023-05-28T05:50:03;9.07;;;5.77;;
1831;SDS011;1680;48.106;11.708;2023-05-28T05:52:31;9.67;;;5.77;;
1831;SDS011;1680;48.106;11.708;2023-05-28T05:54:58;8.47;;;5.70;;
1831;SDS011;1680;48.106;11.708;2023-05-28T05:57:26;11.30;;;6.20;;
1831;SDS011;1680;48.106;11.708;2023-05-28T05:59:53;9.27;;;5.77;;
1831;SDS011;1680;48.106;11.708;2023-05-28T06:02:21;7.80;;;6.30;;
1831;SDS011;1680;48.106;11.708;2023-05-28T06:04:48;9.40;;;6.23;;
1831;SDS011;1680;48.106;11.708;2023-05-28T06:07:15;8.60;;;5.30;;
1831;SDS011;1680;48.106;11.708;2023-05-28T06:09:42;8.27;;;5.43;;
1831;SDS011;1680;48.106;11.708;2023-05-28T06:12:10;10.77;;;6.30;;
1831;SDS011;1680;48.106;11.708;2023-05-28T06:14:39;7.47;;;5.67;;
1831;SDS011;1680;48.106;11.708;2023-05-28T06:17:06;11.00;;;6.27;;
1831;SDS011;1680;48.106;11.708;2023-05-28T06:19:34;9.67;;;5.73;;
1831;SDS011;1680;48.106;11.708;2023-05-28T06:22:02;9.93;;;5.87;;
1831;SDS011;1680;48.106;11.708;2023-05-28T06:24:29;8.40;;;5.43;;
1831;SDS011;1680;48.106;11.708;2023-05-28T06:26:56;10.83;;;6.00;;
1831;SDS011;1680;48.106;11.708;2023-05-28T06:29:24;6.10;;;4.93;;
1831;SDS011;1680;48.106;11.708;2023-05-28T06:31:52;12.70;;;6.40;;
1831;SDS011;1680;48.106;11.708;2023-05-28T06:34:19;10.20;;;5.40;;
1831;SDS011;1680;48.106;11.708;2023-05-28T06:36:47;9.80;;;5.73;;
1831;SDS011;1680;48.106;11.708;2023-05-28T06:39:14;6.77;;;4.80;;
1831;SDS011;1680;48.106;11.708;2023-05-28T06:41:41;9.00;;;5.90;;
1831;SDS011;1680;48.106;11.708;2023-05-28T06:44:09;7.10;;;5.13;;
1831;SDS011;1680;48.106;11.708;2023-05-28T06:46:36;6.97;;;5.33;;
1831;SDS011;1680;48.106;11.708;2023-05-28T06:49:04;10.63;;;5.90;;
1831;SDS011;1680;48.106;11.708;2023-05-28T06:51:32;7.53;;;4.67;;
1831;SDS011;1680;48.106;11.708;2023-05-28T06:53:59;7.90;;;5.30;;
1831;SDS011;1680;48.106;11.708;2023-05-28T06:56:26;9.93;;;5.60;;
1831;SDS011;1680;48.106;11.708;2023-05-28T06:58:53;6.90;;;5.23;;
1831;SDS011;1680;48.106;11.708;2023-05-28T07:01:20;9.90;;;5.37;;
1831;SDS011;1680;48.106;11.708;2023-05-28T07:03:47;10.33;;;5.40;;
1831;SDS011;1680;48.106;11.708;2023-05-28T07:06:16;8.03;;;5.50;;
1831;SDS011;1680;48.106;11.708;2023-05-28T07:08:43;8.80;;;5.97;;
1831;SDS011;1680;48.106;11.708;2023-05-28T07:11:11;8.53;;;4.90;;
1831;SDS011;1680;48.106;11.708;2023-05-28T07:13:38;9.43;;;5.50;;
1831;SDS011;1680;48.106;11.708;2023-05-28T07:16:06;8.30;;;4.80;;
1831;SDS011;1680;48.106;11.708;2023-05-28T07:18:33;6.53;;;4.77;;
1831;SDS011;1680;48.106;11.708;2023-05-28T07:21:00;9.00;;;4.47;;
1831;SDS011;1680;48.106;11.708;2023-05-28T07:23:29;7.87;;;5.37;;
1831;SDS011;1680;48.106;11.708;2023-05-28T07:25:56;7.30;;;4.87;;
1831;SDS011;1680;48.106;11.708;2023-05-28T07:28:23;7.37;;;5.47;;
1831;SDS011;1680;48.106;11.708;2023-05-28T07:30:51;8.50;;;5.53;;
1831;SDS011;1680;48.106;11.708;2023-05-28T07:33:18;7.83;;;5.43;;
1831;SDS011;1680;48.106;11.708;2023-05-28T07:35:45;8.90;;;4.70;;
1831;SDS011;1680;48.106;11.708;2023-05-28T07:38:12;8.20;;;4.60;;
1831;SDS011;1680;48.106;11.708;2023-05-28T07:40:41;6.07;;;4.60;;
1831;SDS011;1680;48.106;11.708;2023-05-28T07:43:09;6.47;;;5.07;;
1831;SDS011;1680;48.106;11.708;2023-05-28T07:45:36;8.87;;;5.37;;
1831;SDS011;1680;48.106;11.708;2023-05-28T07:48:03;8.83;;;4.97;;
1831;SDS011;1680;48.106;11.708;2023-05-28T07:50:30;7.87;;;5.10;;
1831;SDS011;1680;48.106;11.708;2023-05-28T07:52:58;12.47;;;5.60;;
1831;SDS011;1680;48.106;11.708;2023-05-28T07:55:26;7.90;;;5.03;;
1831;SDS011;1680;48.106;11.708;2023-05-28T07:57:55;6.57;;;4.80;;
1831;SDS011;1680;48.106;11.708;2023-05-28T08:00:23;7.20;;;5.07;;
1831;SDS011;1680;48.106;11.708;2023-05-28T08:02:51;8.00;;;5.00;;
1831;SDS011;1680;48.106;11.708;2023-05-28T08:05:19;7.23;;;4.80;;
1831;SDS011;1680;48.106;11.708;2023-05-28T08:07:46;10.27;;;5.23;;
1831;SDS011;1680;48.106;11.708;2023-05-28T08:10:13;8.77;;;4.90;;
1831;SDS011;1680;48.106;11.708;2023-05-28T08:12:40;8.63;;;5.20;;
1831;SDS011;1680;48.106;11.708;2023-05-28T08:15:09;9.97;;;5.10;;
1831;SDS011;1680;48.106;11.708;2023-05-28T08:17:37;8.00;;;4.93;;
1831;SDS011;1680;48.106;11.708;2023-05-28T08:20:04;7.00;;;4.93;;
1831;SDS011;1680;48.106;11.708;2023-05-28T08:22:34;8.73;;;5.03;;
1831;SDS011;1680;48.106;11.708;2023-05-28T08:25:01;6.57;;;4.20;;
1831;SDS011;1680;48.106;11.708;2023-05-28T08:27:30;6.93;;;4.83;;
1831;SDS011;1680;48.106;11.708;2023-05-28T08:29:57;6.97;;;4.37;;
1831;SDS011;1680;48.106;11.708;2023-05-28T08:32:26;7.97;;;5.10;;
1831;SDS011;1680;48.106;11.708;2023-05-28T08:34:53;6.77;;;5.03;;
1831;SDS011;1680;48.106;11.708;2023-05-28T08:37:20;8.30;;;5.47;;
1831;SDS011;1680;48.106;11.708;2023-05-28T08:39:47;8.57;;;4.90;;
1831;SDS011;1680;48.106;11.708;2023-05-28T08:42:15;6.67;;;5.10;;
1831;SDS011;1680;48.106;11.708;2023-05-28T08:44:42;9.40;;;5.37;;
1831;SDS011;1680;48.106;11.708;2023-05-28T08:47:09;7.80;;;4.70;;
1831;SDS011;1680;48.106;11.708;2023-05-28T08:49:40;7.67;;;5.20;;
1831;SDS011;1680;48.106;11.708;2023-05-28T08:52:09;6.23;;;4.70;;
1831;SDS011;1680;48.106;11.708;2023-05-28T08:54:39;6.23;;;4.57;;
1831;SDS011;1680;48.106;11.708;2023-05-28T08:57:07;6.10;;;4.50;;
1831;SDS011;1680;48.106;11.708;2023-05-28T08:59:36;6.03;;;5.07;;
1831;SDS011;1680;48.106;11.708;2023-05-28T09:02:03;8.87;;;5.07;;
1831;SDS011;1680;48.106;11.708;2023-05-28T09:04:31;6.33;;;4.67;;
1831;SDS011;1680;48.106;11.708;2023-05-28T09:06:59;8.27;;;4.50;;
1831;SDS011;1680;48.106;11.708;2023-05-28T09:09:27;9.40;;;4.97;;
1831;SDS011;1680;48.106;11.708;2023-05-28T09:11:57;6.80;;;4.73;;
1831;SDS011;1680;48.106;11.708;2023-05-28T09:14:24;7.60;;;4.80;;
1831;SDS011;1680;48.106;11.708;2023-05-28T09:16:52;5.13;;;4.57;;
1831;SDS011;1680;48.106;11.708;2023-05-28T09:19:19;7.80;;;4.90;;
1831;SDS011;1680;48.106;11.708;2023-05-28T09:21:52;6.27;;;4.40;;
1831;SDS011;1680;48.106;11.708;2023-05-28T09:24:23;4.87;;;4.37;;
1831;SDS011;1680;48.106;11.708;2023-05-28T09:26:53;7.10;;;4.60;;
1831;SDS011;1680;48.106;11.708;2023-05-28T09:29:22;5.90;;;4.47;;
1831;SDS011;1680;48.106;11.708;2023-05-28T09:31:54;7.70;;;4.50;;
1831;SDS011;1680;48.106;11.708;2023-05-28T09:34:25;6.57;;;4.80;;
1831;SDS011;1680;48.106;11.708;2023-05-28T09:36:54;5.20;;;4.10;;
1831;SDS011;1680;48.106;11.708;2023-05-28T09:39:27;7.10;;;4.73;;
1831;SDS011;1680;48.106;11.708;2023-05-28T09:42:00;8.70;;;5.23;;
1831;SDS011;1680;48.106;11.708;2023-05-28T09:44:30;6.83;;;4.50;;
1831;SDS011;1680;48.106;11.708;2023-05-28T09:46:57;7.87;;;4.10;;
1831;SDS011;1680;48.106;11.708;2023-05-28T09:49:27;8.67;;;5.00;;
1831;SDS011;1680;48.106;11.708;2023-05-28T09:51:56;6.27;;;4.67;;
1831;SDS011;1680;48.106;11.708;2023-05-28T09:54:26;5.03;;;4.37;;
1831;SDS011;1680;48.106;11.708;2023-05-28T09:57:00;7.97;;;5.20;;
1831;SDS011;1680;48.106;11.708;2023-05-28T09:59:30;5.67;;;4.37;;
1831;SDS011;1680;48.106;11.708;2023-05-28T10:01:59;6.83;;;4.67;;
1831;SDS011;1680;48.106;11.708;2023-05-28T10:04:31;9.03;;;4.87;;
1831;SDS011;1680;48.106;11.708;2023-05-28T10:07:01;9.13;;;4.80;;
1831;SDS011;1680;48.106;11.708;2023-05-28T10:09:32;6.70;;;5.00;;
1831;SDS011;1680;48.106;11.708;2023-05-28T10:12:01;5.63;;;4.37;;
1831;SDS011;1680;48.106;11.708;2023-05-28T10:14:35;6.80;;;4.40;;
1831;SDS011;1680;48.106;11.708;2023-05-28T10:17:03;6.70;;;4.87;;
1831;SDS011;1680;48.106;11.708;2023-05-28T10:19:33;6.90;;;5.03;;
1831;SDS011;1680;48.106;11.708;2023-05-28T10:22:01;6.47;;;4.20;;
1831;SDS011;1680;48.106;11.708;2023-05-28T10:24:28;5.70;;;4.23;;
1831;SDS011;1680;48.106;11.708;2023-05-28T10:26:58;6.77;;;4.73;;
1831;SDS011;1680;48.106;11.708;2023-05-28T10:29:26;6.67;;;4.60;;
1831;SDS011;1680;48.106;11.708;2023-05-28T10:31:58;7.93;;;4.47;;
1831;SDS011;1680;48.106;11.708;2023-05-28T10:34:29;9.20;;;4.83;;
1831;SDS011;1680;48.106;11.708;2023-05-28T10:36:59;9.37;;;4.93;;
1831;SDS011;1680;48.106;11.708;2023-05-28T10:39:36;6.30;;;4.30;;
1831;SDS011;1680;48.106;11.708;2023-05-28T10:42:06;5.97;;;4.20;;
1831;SDS011;1680;48.106;11.708;2023-05-28T10:44:49;5.73;;;4.57;;
1831;SDS011;1680;48.106;11.708;2023-05-28T10:47:17;6.40;;;4.90;;
1831;SDS011;1680;48.106;11.708;2023-05-28T10:49:57;5.37;;;4.40;;
1831;SDS011;1680;48.106;11.708;2023-05-28T10:52:26;7.17;;;4.80;;
1831;SDS011;1680;48.106;11.708;2023-05-28T10:54:53;9.13;;;5.40;;
1831;SDS011;1680;48.106;11.708;2023-05-28T10:57:22;7.07;;;5.20;;
1831;SDS011;1680;48.106;11.708;2023-05-28T10:59:50;6.03;;;3.90;;
1831;SDS011;1680;48.106;11.708;2023-05-28T11:02:18;6.00;;;4.63;;
1831;SDS011;1680;48.106;11.708;2023-05-28T11:04:51;6.00;;;4.70;;
1831;SDS011;1680;48.106;11.708;2023-05-28T11:07:21;7.83;;;4.47;;
1831;SDS011;1680;48.106;11.708;2023-05-28T11:09:48;6.57;;;4.37;;
1831;SDS011;1680;48.106;11.708;2023-05-28T11:12:17;6.10;;;4.67;;
1831;SDS011;1680;48.106;11.708;2023-05-28T11:14:48;8.97;;;4.50;;
1831;SDS011;1680;48.106;11.708;2023-05-28T11:17:15;6.20;;;4.93;;
1831;SDS011;1680;48.106;11.708;2023-05-28T11:19:42;10.17;;;5.40;;
1831;SDS011;1680;48.106;11.708;2023-05-28T11:22:11;5.63;;;4.30;;
1831;SDS011;1680;48.106;11.708;2023-05-28T11:24:50;5.10;;;4.10;;
1831;SDS011;1680;48.106;11.708;2023-05-28T11:27:21;5.03;;;4.30;;
1831;SDS011;1680;48.106;11.708;2023-05-28T11:29:50;7.50;;;4.70;;
1831;SDS011;1680;48.106;11.708;2023-05-28T11:32:18;7.77;;;4.90;;
1831;SDS011;1680;48.106;11.708;2023-05-28T11:34:47;5.37;;;4.43;;
1831;SDS011;1680;48.106;11.708;2023-05-28T11:37:15;6.60;;;4.30;;
1831;SDS011;1680;48.106;11.708;2023-05-28T11:39:48;5.47;;;4.20;;
1831;SDS011;1680;48.106;11.708;2023-05-28T11:42:16;6.23;;;4.20;;
1831;SDS011;1680;48.106;11.708;2023-05-28T11:44:43;6.40;;;4.63;;
1831;SDS011;1680;48.106;11.708;2023-05-28T11:47:13;7.10;;;5.10;;
1831;SDS011;1680;48.106;11.708;2023-05-28T11:49:40;7.17;;;4.77;;
1831;SDS011;1680;48.106;11.708;2023-05-28T11:52:11;6.60;;;4.70;;
1831;SDS011;1680;48.106;11.708;2023-05-28T11:54:38;5.10;;;4.40;;
1831;SDS011;1680;48.106;11.708;2023-05-28T11:57:07;5.90;;;4.47;;
1831;SDS011;1680;48.106;11.708;2023-05-28T11:59:34;6.00;;;4.20;;
1831;SDS011;1680;48.106;11.708;2023-05-28T12:02:16;4.87;;;3.87;;
1831;SDS011;1680;48.106;11.708;2023-05-28T12:04:52;5.70;;;4.70;;
1831;SDS011;1680;48.106;11.708;2023-05-28T12:07:20;6.90;;;5.13;;
1831;SDS011;1680;48.106;11.708;2023-05-28T12:09:48;4.70;;;4.20;;
1831;SDS011;1680;48.106;11.708;2023-05-28T12:12:15;6.37;;;4.53;;
1831;SDS011;1680;48.106;11.708;2023-05-28T12:14:44;7.30;;;5.10;;
1831;SDS011;1680;48.106;11.708;2023-05-28T12:17:12;4.70;;;4.30;;
1831;SDS011;1680;48.106;11.708;2023-05-28T12:19:41;6.37;;;4.40;;
1831;SDS011;1680;48.106;11.708;2023-05-28T12:22:14;5.20;;;4.70;;
1831;SDS011;1680;48.106;11.708;2023-05-28T12:24:47;5.00;;;4.60;;
1831;SDS011;1680;48.106;11.708;2023-05-28T12:27:18;6.90;;;4.67;;
1831;SDS011;1680;48.106;11.708;2023-05-28T12:29:45;5.20;;;4.33;;
1831;SDS011;1680;48.106;11.708;2023-05-28T12:32:13;5.97;;;4.60;;
1831;SDS011;1680;48.106;11.708;2023-05-28T12:34:41;6.60;;;4.37;;
1831;SDS011;1680;48.106;11.708;2023-05-28T12:37:08;5.80;;;5.07;;
1831;SDS011;1680;48.106;11.708;2023-05-28T12:39:36;5.97;;;4.80;;
1831;SDS011;1680;48.106;11.708;2023-05-28T12:42:04;6.10;;;4.60;;
1831;SDS011;1680;48.106;11.708;2023-05-28T12:44:32;7.00;;;4.53;;
1831;SDS011;1680;48.106;11.708;2023-05-28T12:46:59;5.33;;;4.50;;
1831;SDS011;1680;48.106;11.708;2023-05-28T12:49:26;5.53;;;4.13;;
1831;SDS011;1680;48.106;11.708;2023-05-28T12:51:55;6.00;;;5.10;;
1831;SDS011;1680;48.106;11.708;2023-05-28T12:54:22;6.13;;;4.27;;
1831;SDS011;1680;48.106;11.708;2023-05-28T12:56:49;6.83;;;4.30;;
1831;SDS011;1680;48.106;11.708;2023-05-28T12:59:20;5.70;;;4.37;;
1831;SDS011;1680;48.106;11.708;2023-05-28T13:01:47;6.77;;;4.03;;
1831;SDS011;1680;48.106;11.708;2023-05-28T13:04:14;6.53;;;4.23;;
1831;SDS011;1680;48.106;11.708;2023-05-28T13:06:42;5.67;;;4.73;;
1831;SDS011;1680;48.106;11.708;2023-05-28T13:09:11;7.40;;;4.80;;
1831;SDS011;1680;48.106;11.708;2023-05-28T13:11:39;4.77;;;4.30;;
1831;SDS011;1680;48.106;11.708;2023-05-28T13:14:06;6.70;;;4.43;;
1831;SDS011;1680;48.106;11.708;2023-05-28T13:16:34;6.40;;;4.70;;
1831;SDS011;1680;48.106;11.708;2023-05-28T13:19:02;9.40;;;4.93;;
1831;SDS011;1680;48.106;11.708;2023-05-28T13:21:30;7.37;;;4.90;;
1831;SDS011;1680;48.106;11.708;2023-05-28T13:23:58;6.93;;;4.00;;
1831;SDS011;1680;48.106;11.708;2023-05-28T13:26:28;5.57;;;4.47;;
1831;SDS011;1680;48.106;11.708;2023-05-28T13:28:57;6.53;;;4.47;;
1831;SDS011;1680;48.106;11.708;2023-05-28T13:31:25;5.70;;;4.17;;
1831;SDS011;1680;48.106;11.708;2023-05-28T13:33:52;6.20;;;4.33;;
1831;SDS011;1680;48.106;11.708;2023-05-28T13:36:19;4.53;;;4.10;;
1831;SDS011;1680;48.106;11.708;2023-05-28T13:38:46;5.10;;;4.30;;
1831;SDS011;1680;48.106;11.708;2023-05-28T13:41:13;5.77;;;4.50;;
1831;SDS011;1680;48.106;11.708;2023-05-28T13:43:42;6.60;;;4.73;;
1831;SDS011;1680;48.106;11.708;2023-05-28T13:46:10;7.27;;;4.83;;
1831;SDS011;1680;48.106;11.708;2023-05-28T13:48:37;7.67;;;5.30;;
1831;SDS011;1680;48.106;11.708;2023-05-28T13:51:04;6.87;;;5.03;;
1831;SDS011;1680;48.106;11.708;2023-05-28T13:53:33;4.87;;;4.33;;
1831;SDS011;1680;48.106;11.708;2023-05-28T13:56:01;6.40;;;4.80;;
1831;SDS011;1680;48.106;11.708;2023-05-28T13:58:28;5.60;;;4.57;;
1831;SDS011;1680;48.106;11.708;2023-05-28T14:00:57;8.30;;;4.70;;
1831;SDS011;1680;48.106;11.708;2023-05-28T14:03:24;5.50;;;4.97;;
1831;SDS011;1680;48.106;11.708;2023-05-28T14:05:52;5.47;;;4.70;;
1831;SDS011;1680;48.106;11.708;2023-05-28T14:08:20;9.87;;;5.47;;
1831;SDS011;1680;48.106;11.708;2023-05-28T14:10:47;7.20;;;5.40;;
1831;SDS011;1680;48.106;11.708;2023-05-28T14:13:15;4.73;;;4.27;;
1831;SDS011;1680;48.106;11.708;2023-05-28T14:15:42;6.20;;;5.60;;
1831;SDS011;1680;48.106;11.708;2023-05-28T14:18:11;6.20;;;4.87;;
1831;SDS011;1680;48.106;11.708;2023-05-28T14:20:38;6.13;;;5.20;;
1831;SDS011;1680;48.106;11.708;2023-05-28T14:23:05;6.40;;;5.03;;
1831;SDS011;1680;48.106;11.708;2023-05-28T14:25:32;6.03;;;5.27;;
1831;SDS011;1680;48.106;11.708;2023-05-28T14:27:59;7.80;;;5.60;;
1831;SDS011;1680;48.106;11.708;2023-05-28T14:30:27;5.90;;;5.30;;
1831;SDS011;1680;48.106;11.708;2023-05-28T14:32:54;5.97;;;5.37;;
1831;SDS011;1680;48.106;11.708;2023-05-28T14:35:22;5.63;;;4.93;;
1831;SDS011;1680;48.106;11.708;2023-05-28T14:37:49;5.80;;;5.30;;
1831;SDS011;1680;48.106;11.708;2023-05-28T14:40:17;6.07;;;4.80;;
1831;SDS011;1680;48.106;11.708;2023-05-28T14:42:44;6.47;;;5.37;;
1831;SDS011;1680;48.106;11.708;2023-05-28T14:45:12;6.50;;;4.93;;
1831;SDS011;1680;48.106;11.708;2023-05-28T14:47:39;7.37;;;5.40;;
1831;SDS011;1680;48.106;11.708;2023-05-28T14:50:07;6.97;;;5.53;;
1831;SDS011;1680;48.106;11.708;2023-05-28T14:52:36;6.90;;;5.30;;
1831;SDS011;1680;48.106;11.708;2023-05-28T14:55:03;8.03;;;5.77;;
1831;SDS011;1680;48.106;11.708;2023-05-28T14:57:31;6.90;;;4.80;;
1831;SDS011;1680;48.106;11.708;2023-05-28T15:00:01;6.83;;;4.97;;
1831;SDS011;1680;48.106;11.708;2023-05-28T15:02:32;6.60;;;5.83;;
1831;SDS011;1680;48.106;11.708;2023-05-28T15:04:59;6.43;;;5.70;;
1831;SDS011;1680;48.106;11.708;2023-05-28T15:07:27;6.50;;;5.30;;